Bluebird — 9V3663 — position and weather

sailwx.info

Track history (hours):
 
Tides and Currents Weather Stations Pressure Air Temp Water Temp Dewpoint Dewpoint Depression Visibility Wind Speed Wind Dir Waves Ship Positions

Bluebird

Last reported at 2017-Dec-26 04:01 UTC. Time now 2018-Jan-19 13:28 UTC.
Position N 36°33' E 026°41'.
Warning: this ship's position is 24 days out of date.

Length 228 m; draft 13.2 m.

Type: Ship (hazmat cat A). MMSI: 563407000.

Date/timePositionNaut miles runAvg speedWind from/ knotsBaromVisibWave heightAir tempDewpointWater temp
2017-Dec-26 04:01N 36°33' E 026°41'013.7
2017-Dec-26 04:00N 36°33' E 026°41'713.1
2017-Dec-26 03:30N 36°39' E 026°40'713.2
2017-Dec-26 03:00N 36°46' E 026°40'713.3
2017-Dec-26 02:30N 36°53' E 026°39'713.5
2017-Dec-26 01:59N 36°60' E 026°38'612.1
2017-Dec-26 01:29N 37°05' E 026°35'613.4
2017-Dec-26 01:00N 37°08' E 026°28'613.0
2017-Dec-26 00:30N 37°12' E 026°21'713.2
2017-Dec-26 00:00N 37°16' E 026°14'713.5
2017-Dec-25 23:30N 37°19' E 026°07'713.5
2017-Dec-25 23:01N 37°23' E 025°60'613.0
2017-Dec-25 22:30N 37°26' E 025°53'611.5
2017-Dec-25 22:00N 37°31' E 025°49'1113.2
2017-Dec-25 21:08N 37°42' E 025°48'213.4
2017-Dec-25 21:00N 37°44' E 025°48'813.4
2017-Dec-25 20:22N 37°53' E 025°48'  
2017-Dec-21 23:23N 40°35' E 027°06'0 0.0
2017-Dec-21 22:59N 40°35' E 027°06'0 0.0
2017-Dec-21 22:20N 40°35' E 027°06'0 0.1
2017-Dec-21 21:59N 40°35' E 027°06'0 0.0
2017-Dec-21 21:29N 40°35' E 027°06'0 0.0
2017-Dec-21 20:53N 40°35' E 027°06'0 0.0
2017-Dec-21 20:29N 40°35' E 027°06'0 0.0
2017-Dec-21 19:44N 40°35' E 027°06'0 0.0
2017-Dec-21 19:17N 40°35' E 027°06'0 0.0
2017-Dec-21 18:26N 40°35' E 027°06'0 0.0
2017-Dec-21 17:56N 40°35' E 027°06'0 0.0
2017-Dec-21 17:29N 40°35' E 027°06'0 0.0
2017-Dec-21 16:59N 40°35' E 027°06'0 0.0
2017-Dec-21 16:29N 40°35' E 027°06'0 0.0
2017-Dec-21 15:59N 40°35' E 027°06'0 0.0
2017-Dec-21 15:29N 40°35' E 027°06'0 0.0
2017-Dec-21 14:59N 40°35' E 027°06'0 0.0
2017-Dec-21 14:29N 40°35' E 027°06'0 0.0
2017-Dec-21 13:59N 40°35' E 027°06'0 0.0
2017-Dec-21 13:29N 40°35' E 027°06'0 0.0
2017-Dec-21 12:59N 40°35' E 027°06'0 0.1
2017-Dec-21 12:29N 40°35' E 027°06'0 0.0
2017-Dec-21 11:59N 40°35' E 027°06'83 3.6
2017-Dec-20 13:13N 40°56' E 028°51'1 3.2
2017-Dec-20 12:50N 40°56' E 028°53'3 4.6
2017-Dec-20 12:14N 40°57' E 028°56'2 6.8
2017-Dec-20 11:56N 40°59' E 028°59'  
2017-Dec-16 17:40N 43°42' E 037°50'213.0
2017-Dec-16 17:30N 43°43' E 037°52'612.9
2017-Dec-16 17:00N 43°45' E 038°01'713.0
2017-Dec-16 16:30N 43°47' E 038°09'713.0
2017-Dec-16 16:00N 43°50' E 038°18'1413.2
2017-Dec-16 14:57N 43°54' E 038°36'613.2
2017-Dec-16 14:30N 43°56' E 038°43'713.2
2017-Dec-16 14:00N 43°59' E 038°52'612.5
2017-Dec-16 13:30N 44°00' E 039°00'4 8.4
2017-Dec-16 13:00N 44°02' E 039°06'0 0.1
2017-Dec-16 12:28N 44°02' E 039°06'0 0.2
2017-Dec-16 11:58N 44°02' E 039°06'0 0.1
2017-Dec-16 11:28N 44°02' E 039°06'0 0.2
2017-Dec-16 10:58N 44°02' E 039°06'0 0.2
2017-Dec-16 10:28N 44°02' E 039°06'0 0.3
2017-Dec-16 09:58N 44°02' E 039°06'0 0.0
2017-Dec-16 09:28N 44°02' E 039°06'0 0.0
2017-Dec-16 08:58N 44°02' E 039°06'0 0.0
2017-Dec-16 08:28N 44°02' E 039°06'0 0.2
2017-Dec-16 07:58N 44°02' E 039°06'0 0.2
2017-Dec-16 07:28N 44°02' E 039°06'0 0.1
2017-Dec-16 06:58N 44°02' E 039°06'0 0.1
2017-Dec-16 06:28N 44°01' E 039°06'0 0.0
2017-Dec-16 05:58N 44°01' E 039°06'0 0.1
2017-Dec-16 05:28N 44°02' E 039°06'0 0.0
2017-Dec-16 04:58N 44°02' E 039°06'0 0.1
2017-Dec-16 04:28N 44°01' E 039°06'  
Track history (hours):
 
Tides and Currents Weather Stations Pressure Air Temp Water Temp Dewpoint Dewpoint Depression Visibility Wind Speed Wind Dir Waves Ship Positions

Bluebird

Last reported at 2017-Dec-26 04:01 UTC. Time now 2018-Jan-19 13:28 UTC.
Position N 36°33' E 026°41'.
Warning: this ship's position is 24 days out of date.

Length 228 m; draft 13.2 m.

Type: Ship (hazmat cat A). MMSI: 563407000.

Date/timePositionNaut miles runAvg speedWind from/ knotsBaromVisibWave heightAir tempDewpointWater temp
2017-Dec-26 04:01N 36°33' E 026°41'013.7
2017-Dec-26 04:00N 36°33' E 026°41'713.1
2017-Dec-26 03:30N 36°39' E 026°40'713.2
2017-Dec-26 03:00N 36°46' E 026°40'713.3
2017-Dec-26 02:30N 36°53' E 026°39'713.5
2017-Dec-26 01:59N 36°60' E 026°38'612.1
2017-Dec-26 01:29N 37°05' E 026°35'613.4
2017-Dec-26 01:00N 37°08' E 026°28'613.0
2017-Dec-26 00:30N 37°12' E 026°21'713.2
2017-Dec-26 00:00N 37°16' E 026°14'713.5
2017-Dec-25 23:30N 37°19' E 026°07'713.5
2017-Dec-25 23:01N 37°23' E 025°60'613.0
2017-Dec-25 22:30N 37°26' E 025°53'611.5
2017-Dec-25 22:00N 37°31' E 025°49'1113.2
2017-Dec-25 21:08N 37°42' E 025°48'213.4
2017-Dec-25 21:00N 37°44' E 025°48'813.4
2017-Dec-25 20:22N 37°53' E 025°48'  
2017-Dec-21 23:23N 40°35' E 027°06'0 0.0
2017-Dec-21 22:59N 40°35' E 027°06'0 0.0
2017-Dec-21 22:20N 40°35' E 027°06'0 0.1
2017-Dec-21 21:59N 40°35' E 027°06'0 0.0
2017-Dec-21 21:29N 40°35' E 027°06'0 0.0
2017-Dec-21 20:53N 40°35' E 027°06'0 0.0
2017-Dec-21 20:29N 40°35' E 027°06'0 0.0
2017-Dec-21 19:44N 40°35' E 027°06'0 0.0
2017-Dec-21 19:17N 40°35' E 027°06'0 0.0
2017-Dec-21 18:26N 40°35' E 027°06'0 0.0
2017-Dec-21 17:56N 40°35' E 027°06'0 0.0
2017-Dec-21 17:29N 40°35' E 027°06'0 0.0
2017-Dec-21 16:59N 40°35' E 027°06'0 0.0
2017-Dec-21 16:29N 40°35' E 027°06'0 0.0
2017-Dec-21 15:59N 40°35' E 027°06'0 0.0
2017-Dec-21 15:29N 40°35' E 027°06'0 0.0
2017-Dec-21 14:59N 40°35' E 027°06'0 0.0
2017-Dec-21 14:29N 40°35' E 027°06'0 0.0
2017-Dec-21 13:59N 40°35' E 027°06'0 0.0
2017-Dec-21 13:29N 40°35' E 027°06'0 0.0
2017-Dec-21 12:59N 40°35' E 027°06'0 0.1
2017-Dec-21 12:29N 40°35' E 027°06'0 0.0
2017-Dec-21 11:59N 40°35' E 027°06'83 3.6
2017-Dec-20 13:13N 40°56' E 028°51'1 3.2
2017-Dec-20 12:50N 40°56' E 028°53'3 4.6
2017-Dec-20 12:14N 40°57' E 028°56'2 6.8
2017-Dec-20 11:56N 40°59' E 028°59'  
2017-Dec-16 17:40N 43°42' E 037°50'213.0
2017-Dec-16 17:30N 43°43' E 037°52'612.9
2017-Dec-16 17:00N 43°45' E 038°01'713.0
2017-Dec-16 16:30N 43°47' E 038°09'713.0
2017-Dec-16 16:00N 43°50' E 038°18'1413.2
2017-Dec-16 14:57N 43°54' E 038°36'613.2
2017-Dec-16 14:30N 43°56' E 038°43'713.2
2017-Dec-16 14:00N 43°59' E 038°52'612.5
2017-Dec-16 13:30N 44°00' E 039°00'4 8.4
2017-Dec-16 13:00N 44°02' E 039°06'0 0.1
2017-Dec-16 12:28N 44°02' E 039°06'0 0.2
2017-Dec-16 11:58N 44°02' E 039°06'0 0.1
2017-Dec-16 11:28N 44°02' E 039°06'0 0.2
2017-Dec-16 10:58N 44°02' E 039°06'0 0.2
2017-Dec-16 10:28N 44°02' E 039°06'0 0.3
2017-Dec-16 09:58N 44°02' E 039°06'0 0.0
2017-Dec-16 09:28N 44°02' E 039°06'0 0.0
2017-Dec-16 08:58N 44°02' E 039°06'0 0.0
2017-Dec-16 08:28N 44°02' E 039°06'0 0.2
2017-Dec-16 07:58N 44°02' E 039°06'0 0.2
2017-Dec-16 07:28N 44°02' E 039°06'0 0.1
2017-Dec-16 06:58N 44°02' E 039°06'0 0.1
2017-Dec-16 06:28N 44°01' E 039°06'0 0.0
2017-Dec-16 05:58N 44°01' E 039°06'0 0.1
2017-Dec-16 05:28N 44°02' E 039°06'0 0.0
2017-Dec-16 04:58N 44°02' E 039°06'0 0.1
2017-Dec-16 04:28N 44°01' E 039°06'  

Dump ship's entire track history